Terminal Aerodrome Forecast
Issued by NWS Buffalo, NY

Home | Current Version | Previous Version | Text Only | Print | Product List | Glossary On
Versions: 1 2 3 4 5 6 7 8 9 10 11 12 13 14 15 16 17 18 19 20 21 22 23 24
000
FTUS41 KBUF 211120
TAFBUF
TAF
KBUF 211120Z 2112/2212 15005KT P6SM SCT045
     FM211500 23010KT P6SM FEW200
     FM211700 23011G17KT P6SM FEW200
     FM212200 23011KT P6SM FEW250
     FM220500 17004KT P6SM SCT200=

USA.gov is the U.S. government's official web portal to all federal, state and local government web resources and services.